createdAt,value
2022-11-12T00:02:25.452Z,5.97
2022-11-12T00:05:10.545Z,6.03
2022-11-12T00:07:55.438Z,5.97
2022-11-12T00:10:40.581Z,6.60
2022-11-12T00:13:25.422Z,6.00
2022-11-12T00:16:10.694Z,6.30
2022-11-12T00:18:55.621Z,6.30
2022-11-12T00:21:40.918Z,6.27
2022-11-12T00:24:26.013Z,5.93
2022-11-12T00:27:11.879Z,5.77
2022-11-12T00:29:56.957Z,6.37
2022-11-12T00:32:42.249Z,5.93
2022-11-12T00:35:27.555Z,6.17
2022-11-12T00:38:12.434Z,6.47
2022-11-12T00:41:00.985Z,6.23
2022-11-12T00:43:48.851Z,5.83
2022-11-12T00:46:33.921Z,6.00
2022-11-12T00:49:18.970Z,5.67
2022-11-12T00:52:04.376Z,5.77
2022-11-12T00:54:49.180Z,5.70
2022-11-12T00:57:34.456Z,6.37
2022-11-12T01:00:21.676Z,5.43
2022-11-12T01:03:06.652Z,5.10
2022-11-12T01:05:51.930Z,5.40
2022-11-12T01:08:37.613Z,5.07
2022-11-12T01:11:25.668Z,4.60
2022-11-12T01:14:10.954Z,5.00
2022-11-12T01:16:56.111Z,4.80
2022-11-12T01:19:41.066Z,4.83
2022-11-12T01:22:26.261Z,5.00
2022-11-12T01:25:11.669Z,5.07
2022-11-12T01:27:56.579Z,4.87
2022-11-12T01:30:42.373Z,4.93
2022-11-12T01:33:27.182Z,5.40
2022-11-12T01:36:14.185Z,4.47
2022-11-12T01:38:59.466Z,4.53
2022-11-12T01:41:44.380Z,4.67
2022-11-12T01:44:35.392Z,4.57
2022-11-12T01:47:25.038Z,4.60
2022-11-12T01:50:30.839Z,4.83
2022-11-12T01:53:16.321Z,4.77
2022-11-12T01:56:04.654Z,4.90
2022-11-12T01:58:56.405Z,4.90
2022-11-12T02:01:42.182Z,4.53
2022-11-12T02:04:27.961Z,4.10
2022-11-12T02:07:13.559Z,4.60
2022-11-12T02:10:02.013Z,4.17
2022-11-12T02:13:07.356Z,4.03
2022-11-12T02:15:52.828Z,4.30
2022-11-12T02:18:38.218Z,4.30
2022-11-12T02:21:24.968Z,4.00
2022-11-12T02:24:12.562Z,4.20
2022-11-12T02:26:58.353Z,3.90
2022-11-12T02:29:46.374Z,3.70
2022-11-12T02:32:31.810Z,4.00
2022-11-12T02:35:17.205Z,4.30
2022-11-12T02:38:03.033Z,3.93
2022-11-12T02:40:48.191Z,4.10
2022-11-12T02:43:33.632Z,4.33
2022-11-12T02:46:18.401Z,4.60
2022-11-12T02:49:04.190Z,3.90
2022-11-12T02:51:49.481Z,4.07
2022-11-12T02:54:34.571Z,4.10
2022-11-12T02:57:19.885Z,4.10
2022-11-12T03:00:07.243Z,3.87
2022-11-12T03:03:01.891Z,4.50
2022-11-12T03:05:55.342Z,3.80
2022-11-12T03:08:40.821Z,4.63
2022-11-12T03:11:25.832Z,4.33
2022-11-12T03:14:10.805Z,4.63
2022-11-12T03:16:55.662Z,4.33
2022-11-12T03:19:40.807Z,4.20
2022-11-12T03:22:25.757Z,4.10
2022-11-12T03:25:10.893Z,4.50
2022-11-12T03:28:04.366Z,4.63
2022-11-12T03:30:49.806Z,4.30
2022-11-12T03:33:35.085Z,4.50
2022-11-12T03:36:20.131Z,4.60
2022-11-12T03:39:05.589Z,4.90
2022-11-12T03:41:50.762Z,4.67
2022-11-12T03:44:35.942Z,4.80
2022-11-12T03:47:21.147Z,4.37
2022-11-12T03:50:06.660Z,4.97
2022-11-12T03:52:54.649Z,5.10
2022-11-12T03:55:39.925Z,5.20
2022-11-12T03:58:25.559Z,4.97
2022-11-12T04:01:10.853Z,5.50
2022-11-12T04:03:55.685Z,4.80
2022-11-12T04:06:59.385Z,5.40
2022-11-12T04:09:44.432Z,5.20
2022-11-12T04:12:47.941Z,5.00
2022-11-12T04:15:33.457Z,5.73
2022-11-12T04:18:36.672Z,5.50
2022-11-12T04:21:50.186Z,4.83
2022-11-12T04:24:56.468Z,4.90
2022-11-12T04:27:42.599Z,5.20
2022-11-12T04:30:27.918Z,5.77
2022-11-12T04:33:12.882Z,5.33
2022-11-12T04:35:58.098Z,5.20
2022-11-12T04:38:43.244Z,5.43
2022-11-12T04:41:46.891Z,5.27
2022-11-12T04:44:50.577Z,4.87
2022-11-12T04:47:39.340Z,5.60
2022-11-12T04:50:24.753Z,4.70
2022-11-12T04:53:09.841Z,4.60
2022-11-12T04:55:57.996Z,4.77
2022-11-12T04:58:43.288Z,4.93
2022-11-12T05:01:28.069Z,5.33
2022-11-12T05:04:13.396Z,4.60
2022-11-12T05:06:59.080Z,4.97
2022-11-12T05:09:44.497Z,5.83
2022-11-12T05:12:29.563Z,5.10
2022-11-12T05:15:15.272Z,5.20
2022-11-12T05:18:00.213Z,4.63
2022-11-12T05:20:46.939Z,4.40
2022-11-12T05:23:32.135Z,4.37
2022-11-12T05:26:17.554Z,4.60
2022-11-12T05:29:07.573Z,4.73
2022-11-12T05:31:54.031Z,4.50
2022-11-12T05:34:39.439Z,4.70
2022-11-12T05:37:24.494Z,5.00
2022-11-12T05:40:10.089Z,4.40
2022-11-12T05:42:54.976Z,4.77
2022-11-12T05:45:44.679Z,4.57
2022-11-12T05:48:30.385Z,4.00
2022-11-12T05:51:16.092Z,4.63
2022-11-12T05:54:02.483Z,5.10
2022-11-12T05:56:47.947Z,4.67
2022-11-12T05:59:32.889Z,5.03
2022-11-12T06:02:18.185Z,4.80
2022-11-12T06:05:03.918Z,4.73
2022-11-12T06:07:49.278Z,4.50
2022-11-12T06:10:34.764Z,5.07
2022-11-12T06:13:21.337Z,4.63
2022-11-12T06:16:06.625Z,4.70
2022-11-12T06:18:51.491Z,4.77
2022-11-12T06:21:36.376Z,4.97
2022-11-12T06:24:21.513Z,5.10
2022-11-12T06:27:06.753Z,5.27
2022-11-12T06:29:52.381Z,4.63
2022-11-12T06:32:37.596Z,4.63
2022-11-12T06:35:22.505Z,5.20
2022-11-12T06:38:07.756Z,5.50
2022-11-12T06:40:52.627Z,5.50
2022-11-12T06:43:38.473Z,6.27
2022-11-12T06:46:23.370Z,5.37
2022-11-12T06:49:08.521Z,5.87
2022-11-12T06:51:53.593Z,6.27
2022-11-12T06:54:38.781Z,6.00
2022-11-12T06:57:23.903Z,5.50
2022-11-12T07:00:11.804Z,5.80
2022-11-12T07:02:56.981Z,5.70
2022-11-12T07:05:42.039Z,5.93
2022-11-12T07:08:27.202Z,5.97
2022-11-12T07:11:13.733Z,6.17
2022-11-12T07:13:58.885Z,6.30
2022-11-12T07:16:44.012Z,5.97
2022-11-12T07:19:28.997Z,6.23
2022-11-12T07:22:14.330Z,6.67
2022-11-12T07:24:59.468Z,6.07
2022-11-12T07:27:44.677Z,6.50
2022-11-12T07:30:29.507Z,6.60
2022-11-12T07:33:14.411Z,6.50
2022-11-12T07:36:02.669Z,8.03
2022-11-12T07:38:50.267Z,7.30
2022-11-12T07:41:35.525Z,6.70
2022-11-12T07:44:20.733Z,7.57
2022-11-12T07:47:05.787Z,6.60
2022-11-12T07:49:50.796Z,6.43
2022-11-12T07:52:35.703Z,8.60
2022-11-12T07:55:20.783Z,6.90
2022-11-12T07:58:06.472Z,6.60
2022-11-12T08:00:52.178Z,7.10
2022-11-12T08:03:37.933Z,7.00
2022-11-12T08:06:23.684Z,6.90
2022-11-12T08:09:09.173Z,6.60
2022-11-12T08:11:54.494Z,7.60
2022-11-12T08:14:39.939Z,7.27
2022-11-12T08:17:24.739Z,7.63
2022-11-12T08:20:10.318Z,8.00
2022-11-12T08:22:59.995Z,8.20
2022-11-12T08:25:45.354Z,8.53
2022-11-12T08:28:32.300Z,7.80
2022-11-12T08:31:20.677Z,9.07
2022-11-12T08:34:12.549Z,9.67
2022-11-12T08:36:57.919Z,9.47
2022-11-12T08:39:43.118Z,8.70
2022-11-12T08:42:28.261Z,8.90
2022-11-12T08:45:13.844Z,9.00
2022-11-12T08:47:59.963Z,9.00
2022-11-12T08:50:45.371Z,8.43
2022-11-12T08:53:31.066Z,9.87
2022-11-12T08:56:16.265Z,8.40
2022-11-12T08:59:06.218Z,9.10
2022-11-12T09:01:52.569Z,9.17
2022-11-12T09:04:37.640Z,8.53
2022-11-12T09:07:48.396Z,8.13
2022-11-12T09:10:28.637Z,8.50
2022-11-12T09:13:14.272Z,8.00
2022-11-12T09:16:04.616Z,8.97
2022-11-12T09:18:49.837Z,9.40
2022-11-12T09:21:35.134Z,9.67
2022-11-12T09:24:20.141Z,9.97
2022-11-12T09:27:05.501Z,9.40
2022-11-12T09:29:50.458Z,8.87
2022-11-12T09:32:35.474Z,8.60
2022-11-12T09:35:20.439Z,8.87
2022-11-12T09:38:05.765Z,9.57
2022-11-12T09:40:53.530Z,9.73
2022-11-12T09:43:50.372Z,9.40
2022-11-12T09:46:46.358Z,9.20
2022-11-12T09:50:18.520Z,9.03
2022-11-12T09:53:17.242Z,8.70
2022-11-12T09:56:07.185Z,9.00
2022-11-12T09:58:53.591Z,8.17
2022-11-12T10:01:50.744Z,8.90
2022-11-12T10:04:59.936Z,8.43
2022-11-12T10:08:27.223Z,8.50
2022-11-12T10:12:05.605Z,7.77
2022-11-12T10:14:59.603Z,7.87
2022-11-12T10:17:55.475Z,7.43
2022-11-12T10:20:51.231Z,6.80
2022-11-12T10:23:42.716Z,6.27
2022-11-12T10:26:31.911Z,7.00
2022-11-12T10:29:30.941Z,8.07
2022-11-12T10:32:16.679Z,7.17
2022-11-12T10:35:02.626Z,6.60
2022-11-12T10:38:04.618Z,7.17
2022-11-12T10:40:49.543Z,6.87
2022-11-12T10:43:35.585Z,6.97
2022-11-12T10:46:24.344Z,6.20
2022-11-12T10:49:15.322Z,5.93
2022-11-12T10:52:00.659Z,5.70
2022-11-12T10:54:50.977Z,6.87
2022-11-12T10:57:38.870Z,6.80
2022-11-12T11:00:24.718Z,6.60
2022-11-12T11:03:21.027Z,6.60
2022-11-12T11:06:17.319Z,7.90
2022-11-12T11:09:08.899Z,7.37
2022-11-12T11:11:54.836Z,7.63
2022-11-12T11:14:40.573Z,6.67
2022-11-12T11:17:25.625Z,6.77
2022-11-12T11:20:25.856Z,6.27
2022-11-12T11:23:11.329Z,6.33
2022-11-12T11:26:03.186Z,6.73
2022-11-12T11:29:21.381Z,7.20
2022-11-12T11:32:32.087Z,6.80
2022-11-12T11:35:53.947Z,7.20
2022-11-12T11:38:42.113Z,7.50
2022-11-12T11:41:54.366Z,7.07
2022-11-12T11:45:20.427Z,7.23
2022-11-12T11:48:11.388Z,6.97
2022-11-12T11:51:06.961Z,6.60
2022-11-12T11:54:28.344Z,6.97
2022-11-12T11:57:22.845Z,6.17
2022-11-12T12:00:19.417Z,6.13
2022-11-12T12:03:31.762Z,5.63
2022-11-12T12:06:25.889Z,7.20
2022-11-12T12:09:37.182Z,6.87
2022-11-12T12:12:31.465Z,7.27
2022-11-12T12:15:32.909Z,6.80
2022-11-12T12:18:44.096Z,6.97
2022-11-12T12:21:32.194Z,8.03
2022-11-12T12:24:23.939Z,7.80
2022-11-12T12:27:16.858Z,8.83
2022-11-12T12:30:17.211Z,8.73
2022-11-12T12:33:16.235Z,8.57
2022-11-12T12:36:07.780Z,8.60
2022-11-12T12:39:03.905Z,8.43
2022-11-12T12:42:15.708Z,8.90
2022-11-12T12:45:36.117Z,8.97
2022-11-12T12:48:28.220Z,9.53
2022-11-12T12:51:13.886Z,10.23
2022-11-12T12:53:59.205Z,9.80
2022-11-12T12:56:47.179Z,10.57
2022-11-12T12:59:32.409Z,10.23
2022-11-12T13:02:23.362Z,10.30
2022-11-12T13:05:25.196Z,12.23
2022-11-12T13:08:20.310Z,11.13
2022-11-12T13:11:05.649Z,11.00
2022-11-12T13:13:50.512Z,11.17
2022-11-12T13:16:53.826Z,10.83
2022-11-12T13:19:43.894Z,11.03
2022-11-12T13:22:37.956Z,11.60
2022-11-12T13:25:29.040Z,10.50
2022-11-12T13:28:14.343Z,11.20
2022-11-12T13:31:02.128Z,9.93
2022-11-12T13:33:48.315Z,11.80
2022-11-12T13:36:33.530Z,12.13
2022-11-12T13:39:20.201Z,11.33
2022-11-12T13:42:35.689Z,11.60
2022-11-12T13:45:24.197Z,11.43
2022-11-12T13:48:15.081Z,11.97
2022-11-12T13:51:04.498Z,11.83
2022-11-12T13:53:49.546Z,12.77
2022-11-12T13:56:35.964Z,13.00
2022-11-12T13:59:24.803Z,11.77
2022-11-12T14:02:22.095Z,11.77
2022-11-12T14:05:15.037Z,12.17
2022-11-12T14:08:12.335Z,12.07
2022-11-12T14:11:34.516Z,11.17
2022-11-12T14:14:34.597Z,10.60
2022-11-12T14:17:28.696Z,10.20
2022-11-12T14:20:36.196Z,11.77
2022-11-12T14:23:25.042Z,10.93
2022-11-12T14:26:12.892Z,10.37
2022-11-12T14:28:59.274Z,11.00
2022-11-12T14:31:44.726Z,10.93
2022-11-12T14:34:32.920Z,11.83
2022-11-12T14:37:41.652Z,11.77
2022-11-12T14:40:30.458Z,10.37
2022-11-12T14:43:28.186Z,11.33
2022-11-12T14:46:27.642Z,13.10
2022-11-12T14:49:16.818Z,11.77
2022-11-12T14:52:24.741Z,13.43
2022-11-12T14:55:17.333Z,12.60
2022-11-12T14:58:04.538Z,12.77
2022-11-12T15:00:55.075Z,11.83
2022-11-12T15:03:40.261Z,12.23
2022-11-12T15:06:31.354Z,13.80
2022-11-12T15:09:18.888Z,13.20
2022-11-12T15:12:21.105Z,14.13
2022-11-12T15:15:10.590Z,14.10
2022-11-12T15:18:00.675Z,12.83
2022-11-12T15:21:02.704Z,13.13
2022-11-12T15:24:17.825Z,14.77
2022-11-12T15:27:37.073Z,14.33
2022-11-12T15:30:28.650Z,14.43
2022-11-12T15:33:13.669Z,15.23
2022-11-12T15:36:00.873Z,15.70
2022-11-12T15:38:54.199Z,14.97
2022-11-12T15:41:40.106Z,16.23
2022-11-12T15:44:25.359Z,16.60
2022-11-12T15:47:29.250Z,19.97
2022-11-12T15:50:23.003Z,18.93
2022-11-12T15:53:08.384Z,16.37
2022-11-12T15:55:53.228Z,15.60
2022-11-12T15:58:40.522Z,15.50
2022-11-12T16:01:25.988Z,15.70
2022-11-12T16:04:14.249Z,15.70
2022-11-12T16:06:59.918Z,16.57
2022-11-12T16:09:45.128Z,17.03
2022-11-12T16:12:30.046Z,23.20
2022-11-12T16:15:18.240Z,19.73
2022-11-12T16:18:03.400Z,18.97
2022-11-12T16:20:49.812Z,16.33
2022-11-12T16:23:36.778Z,17.23
2022-11-12T16:26:27.715Z,17.30
2022-11-12T16:29:13.666Z,19.03
2022-11-12T16:31:58.636Z,17.73
2022-11-12T16:34:43.588Z,18.13
2022-11-12T16:37:28.837Z,19.77
2022-11-12T16:40:23.438Z,19.13
2022-11-12T16:43:08.767Z,18.27
2022-11-12T16:45:54.210Z,18.53
2022-11-12T16:48:39.492Z,17.63
2022-11-12T16:51:24.946Z,19.23
2022-11-12T16:54:10.536Z,17.83
2022-11-12T16:56:56.534Z,16.83
2022-11-12T16:59:41.631Z,17.30
2022-11-12T17:02:26.495Z,15.03
2022-11-12T17:05:22.952Z,14.17
2022-11-12T17:08:09.757Z,13.47
2022-11-12T17:10:55.910Z,14.33
2022-11-12T17:13:41.597Z,16.00
2022-11-12T17:16:26.713Z,17.60
2022-11-12T17:19:11.924Z,20.03
2022-11-12T17:21:57.123Z,20.73
2022-11-12T17:24:42.319Z,19.80
2022-11-12T17:27:28.414Z,19.70
2022-11-12T17:30:13.933Z,30.03
2022-11-12T17:32:59.811Z,33.73
2022-11-12T17:35:45.121Z,38.57
2022-11-12T17:38:30.473Z,38.40
2022-11-12T17:41:15.562Z,33.80
2022-11-12T17:44:01.312Z,27.60
2022-11-12T17:46:47.189Z,32.00
2022-11-12T17:49:32.080Z,33.70
2022-11-12T17:52:17.253Z,41.40
2022-11-12T17:55:02.718Z,34.53
2022-11-12T17:57:48.805Z,30.27
2022-11-12T18:00:35.062Z,24.87
2022-11-12T18:03:20.602Z,23.33
2022-11-12T18:06:12.284Z,24.27
2022-11-12T18:09:00.413Z,27.27
2022-11-12T18:11:48.607Z,31.47
2022-11-12T18:14:33.668Z,30.60
2022-11-12T18:17:19.174Z,26.30
2022-11-12T18:20:04.946Z,24.70
2022-11-12T18:22:50.202Z,25.80
2022-11-12T18:25:38.025Z,28.30
2022-11-12T18:28:23.261Z,27.67
2022-11-12T18:31:09.113Z,24.83
2022-11-12T18:33:55.325Z,24.23
2022-11-12T18:36:40.891Z,28.40
2022-11-12T18:39:26.439Z,31.33
2022-11-12T18:42:11.760Z,44.00
2022-11-12T18:44:56.872Z,37.47
2022-11-12T18:47:42.011Z,35.57
2022-11-12T18:50:27.290Z,37.30
2022-11-12T18:53:12.259Z,38.10
2022-11-12T18:56:06.830Z,35.97
2022-11-12T18:58:53.101Z,34.70
2022-11-12T19:01:38.386Z,33.87
2022-11-12T19:04:23.496Z,36.57
2022-11-12T19:07:09.071Z,32.20
2022-11-12T19:09:54.600Z,32.17
2022-11-12T19:12:39.569Z,31.37
2022-11-12T19:15:26.940Z,31.73
2022-11-12T19:18:12.139Z,29.67
2022-11-12T19:21:06.694Z,30.07
2022-11-12T19:23:56.021Z,29.27
2022-11-12T19:26:41.514Z,30.50
2022-11-12T19:29:26.972Z,28.57
2022-11-12T19:32:13.579Z,27.50
2022-11-12T19:34:58.655Z,32.90
2022-11-12T19:37:43.995Z,34.80
2022-11-12T19:40:28.792Z,33.13
2022-11-12T19:43:14.030Z,35.10
2022-11-12T19:45:59.067Z,32.37
2022-11-12T19:48:44.687Z,32.53
2022-11-12T19:51:30.795Z,32.97
2022-11-12T19:54:16.067Z,29.90
2022-11-12T19:57:00.826Z,30.53
2022-11-12T19:59:46.518Z,32.30
2022-11-12T20:02:31.814Z,34.63
2022-11-12T20:05:17.106Z,29.47
2022-11-12T20:08:02.136Z,26.87
2022-11-12T20:10:47.573Z,26.40
2022-11-12T20:13:32.718Z,33.20
2022-11-12T20:16:23.791Z,30.90
2022-11-12T20:19:10.767Z,28.67
2022-11-12T20:21:55.913Z,25.43
2022-11-12T20:24:41.244Z,23.70
2022-11-12T20:27:26.498Z,22.73
2022-11-12T20:30:12.088Z,24.40
2022-11-12T20:32:56.886Z,23.03
2022-11-12T20:35:42.069Z,21.60
2022-11-12T20:38:28.569Z,19.77
2022-11-12T20:41:22.960Z,20.93
2022-11-12T20:44:08.142Z,20.53
2022-11-12T20:46:53.449Z,20.20
2022-11-12T20:49:38.378Z,20.33
2022-11-12T20:52:23.553Z,20.93
2022-11-12T20:55:09.411Z,19.97
2022-11-12T20:57:54.417Z,20.60
2022-11-12T21:00:39.748Z,20.23
2022-11-12T21:03:25.055Z,18.53
2022-11-12T21:06:13.010Z,18.87
2022-11-12T21:08:59.724Z,17.73
2022-11-12T21:11:44.860Z,29.67
2022-11-12T21:14:30.498Z,34.20
2022-11-12T21:17:15.342Z,34.10
2022-11-12T21:20:00.321Z,33.77
2022-11-12T21:22:47.624Z,36.00
2022-11-12T21:25:36.569Z,36.57
2022-11-12T21:28:21.683Z,33.17
2022-11-12T21:31:13.009Z,30.53
2022-11-12T21:34:00.916Z,33.60
2022-11-12T21:36:45.914Z,31.43
2022-11-12T21:39:31.221Z,31.13
2022-11-12T21:42:16.414Z,30.03
2022-11-12T21:45:02.159Z,30.70
2022-11-12T21:47:47.308Z,35.17
2022-11-12T21:50:32.412Z,32.80
2022-11-12T21:53:17.776Z,30.70
2022-11-12T21:56:17.149Z,31.00
2022-11-12T21:59:04.085Z,30.70
2022-11-12T22:01:49.525Z,27.43
2022-11-12T22:04:34.493Z,28.73
2022-11-12T22:07:19.864Z,32.33
2022-11-12T22:10:05.868Z,30.90
2022-11-12T22:13:19.718Z,30.67
2022-11-12T22:15:57.149Z,28.73
2022-11-12T22:18:43.742Z,27.50
2022-11-12T22:21:35.390Z,26.60
2022-11-12T22:24:22.065Z,26.20
2022-11-12T22:27:07.174Z,24.57
2022-11-12T22:29:52.215Z,24.77
2022-11-12T22:32:37.176Z,26.00
2022-11-12T22:35:22.455Z,26.03
2022-11-12T22:38:07.545Z,25.50
2022-11-12T22:40:52.873Z,26.63
2022-11-12T22:43:38.494Z,25.47
2022-11-12T22:46:28.782Z,27.00
2022-11-12T22:49:14.002Z,24.90
2022-11-12T22:51:59.153Z,24.30
2022-11-12T22:54:44.231Z,24.93
2022-11-12T22:57:29.372Z,23.80
2022-11-12T23:00:15.162Z,24.23
2022-11-12T23:03:00.424Z,22.57
2022-11-12T23:05:45.273Z,22.53
2022-11-12T23:08:31.525Z,21.77
2022-11-12T23:11:19.757Z,24.10
2022-11-12T23:14:04.839Z,21.33
2022-11-12T23:16:52.557Z,21.47
2022-11-12T23:19:37.549Z,21.90
2022-11-12T23:22:22.740Z,21.83
2022-11-12T23:25:08.296Z,23.27
2022-11-12T23:27:53.276Z,23.47
2022-11-12T23:30:38.399Z,22.53
2022-11-12T23:33:23.608Z,22.70
2022-11-12T23:36:10.743Z,21.37
2022-11-12T23:38:56.992Z,21.20
2022-11-12T23:41:42.133Z,20.77
2022-11-12T23:44:27.016Z,20.27
2022-11-12T23:47:12.205Z,19.63
2022-11-12T23:49:57.181Z,21.00
2022-11-12T23:52:42.468Z,19.83
2022-11-12T23:55:29.325Z,19.57
2022-11-12T23:58:15.427Z,20.00
